Time;durP1;ratioP1;P1;durP2;ratioP2;P2;SDS_P1;SDS_P2;PMS_P1;PMS_P2;Temp;Humidity;BMP_temperature;BMP_pressure;BME280_temperature;BME280_humidity;BME280_pressure;Samples;Min_cycle;Max_cycle;Signal;HPM_P1;HPM_P2
2022/11/09 00:01:01;;;;;;;2.07;1.07;;;13.10;99.90;;;;;;6156687;23;20277;-49
2022/11/09 00:03:27;;;;;;;2.20;1.17;;;13.10;99.90;;;;;;6155963;23;20666;-49
2022/11/09 00:05:57;;;;;;;2.80;1.10;;;13.00;99.90;;;;;;6155946;23;20161;-48
2022/11/09 00:08:22;;;;;;;2.33;1.23;;;13.00;99.90;;;;;;6156090;23;20174;-50
2022/11/09 00:10:48;;;;;;;1.90;1.33;;;13.00;99.90;;;;;;6156307;23;20216;-49
2022/11/09 00:13:13;;;;;;;4.00;1.10;;;12.90;99.90;;;;;;6155719;23;20508;-49
2022/11/09 00:15:39;;;;;;;2.43;1.43;;;12.90;99.90;;;;;;6156360;23;20577;-50
2022/11/09 00:18:04;;;;;;;1.33;0.90;;;12.80;99.90;;;;;;6155933;23;20728;-50
2022/11/09 00:20:30;;;;;;;2.17;1.37;;;12.80;99.90;;;;;;6155779;23;20149;-48
2022/11/09 00:22:56;;;;;;;2.10;1.37;;;12.80;99.90;;;;;;6156026;23;20162;-49
2022/11/09 00:25:21;;;;;;;1.20;1.10;;;12.70;99.90;;;;;;6132307;23;20615;-50
2022/11/09 00:27:47;;;;;;;1.33;0.87;;;12.70;99.90;;;;;;6157678;23;20177;-49
2022/11/09 00:30:13;;;;;;;2.87;1.20;;;12.70;99.90;;;;;;6157765;23;20160;-49
2022/11/09 00:32:38;;;;;;;1.13;1.03;;;12.60;99.90;;;;;;6157464;23;20177;-48
2022/11/09 00:35:04;;;;;;;4.47;1.20;;;12.60;99.90;;;;;;6157934;23;20233;-49
2022/11/09 00:37:30;;;;;;;1.30;0.90;;;12.50;99.90;;;;;;6157394;23;20170;-48
2022/11/09 00:39:55;;;;;;;2.30;1.10;;;12.50;99.90;;;;;;6157502;23;20525;-49
2022/11/09 00:42:21;;;;;;;1.43;1.20;;;12.50;99.90;;;;;;6157972;23;20205;-50
2022/11/09 00:44:47;;;;;;;1.93;1.13;;;12.50;99.90;;;;;;6158415;23;20157;-49
2022/11/09 00:47:12;;;;;;;1.13;1.00;;;12.50;99.90;;;;;;6158521;23;20162;-50
2022/11/09 00:49:38;;;;;;;3.20;1.10;;;12.50;99.90;;;;;;6158606;23;20165;-48
2022/11/09 00:52:04;;;;;;;1.93;1.00;;;12.50;99.90;;;;;;6158361;23;20186;-49
2022/11/09 00:54:29;;;;;;;2.00;0.93;;;12.40;99.90;;;;;;6158040;23;20623;-49
2022/11/09 00:56:55;;;;;;;2.10;1.10;;;12.50;99.90;;;;;;6158380;23;20237;-48
2022/11/09 00:59:20;;;;;;;2.87;1.27;;;12.40;99.90;;;;;;6158300;23;20169;-50
2022/11/09 01:01:46;;;;;;;1.23;0.87;;;12.40;99.90;;;;;;6132794;23;20164;-48
2022/11/09 01:04:11;;;;;;;2.43;1.20;;;12.40;99.90;;;;;;6158444;23;20165;-49
2022/11/09 01:06:37;;;;;;;2.83;1.33;;;12.40;99.90;;;;;;6158746;23;20161;-49
2022/11/09 01:09:02;;;;;;;1.40;0.93;;;12.40;99.90;;;;;;6158897;23;20177;-48
2022/11/09 01:11:28;;;;;;;2.17;1.30;;;12.30;99.90;;;;;;6158625;23;20177;-49
2022/11/09 01:13:54;;;;;;;2.80;1.10;;;12.30;99.90;;;;;;6158504;23;20154;-49
2022/11/09 01:16:21;;;;;;;2.30;1.03;;;12.30;99.90;;;;;;6158571;23;20150;-49
2022/11/09 01:18:47;;;;;;;4.77;1.30;;;12.30;99.90;;;;;;6158291;23;20261;-48
2022/11/09 01:21:14;;;;;;;3.83;0.90;;;12.30;99.90;;;;;;6158281;23;20229;-49
2022/11/09 01:23:41;;;;;;;1.07;0.80;;;12.30;99.90;;;;;;6158532;23;20158;-49
2022/11/09 01:26:09;;;;;;;1.33;1.00;;;12.30;99.90;;;;;;6157973;23;20164;-47
2022/11/09 01:28:35;;;;;;;4.83;1.20;;;12.30;99.90;;;;;;6158539;23;20169;-49
2022/11/09 01:31:03;;;;;;;2.90;1.10;;;12.20;99.90;;;;;;6158590;23;20168;-50
2022/11/09 01:33:29;;;;;;;3.10;1.00;;;12.20;99.90;;;;;;6158691;23;20165;-50
2022/11/09 01:36:01;;;;;;;3.17;1.00;;;12.20;99.90;;;;;;6158396;23;20157;-50
2022/11/09 01:38:27;;;;;;;4.67;1.50;;;12.10;99.90;;;;;;6158956;23;20174;-49
2022/11/09 01:40:52;;;;;;;3.27;1.33;;;12.20;99.90;;;;;;6158551;23;20185;-49
2022/11/09 01:43:21;;;;;;;3.87;1.23;;;12.20;99.90;;;;;;6159001;23;20188;-50
2022/11/09 01:46:16;;;;;;;2.53;1.20;;;12.30;99.90;;;;;;6159029;23;20154;-50
2022/11/09 01:48:52;;;;;;;4.23;1.00;;;12.30;99.90;;;;;;6159153;23;20178;-49
2022/11/09 01:51:42;;;;;;;2.67;1.20;;;12.40;99.90;;;;;;6158607;23;20173;-50
2022/11/09 01:54:18;;;;;;;3.20;1.50;;;12.40;99.90;;;;;;6159087;23;20162;-49
2022/11/09 01:56:47;;;;;;;5.50;1.53;;;12.40;99.90;;;;;;6158614;23;20594;-49
2022/11/09 01:59:21;;;;;;;4.73;1.53;;;12.40;99.90;;;;;;6158577;23;20169;-50
2022/11/09 02:01:48;;;;;;;9.07;1.50;;;12.50;99.90;;;;;;6158819;23;20157;-49
2022/11/09 02:04:20;;;;;;;6.70;1.20;;;12.50;99.90;;;;;;6158941;23;20539;-50
2022/11/09 02:06:46;;;;;;;9.80;1.30;;;12.40;99.90;;;;;;6158569;23;20142;-49
2022/11/09 02:09:36;;;;;;;2.23;1.17;;;12.40;99.90;;;;;;6158610;23;20181;-49
2022/11/09 02:12:02;;;;;;;8.53;1.30;;;12.40;99.90;;;;;;6158827;23;20178;-50
2022/11/09 02:14:28;;;;;;;5.33;1.33;;;12.50;99.90;;;;;;6159042;23;20534;-50
2022/11/09 02:16:54;;;;;;;5.00;1.30;;;12.50;99.90;;;;;;6158573;23;20150;-49
2022/11/09 02:19:20;;;;;;;5.53;1.40;;;12.50;99.90;;;;;;6132300;23;20188;-50
2022/11/09 02:21:46;;;;;;;4.50;1.37;;;12.50;99.90;;;;;;6158515;23;20588;-50
2022/11/09 02:24:11;;;;;;;5.30;1.73;;;12.50;99.90;;;;;;6158900;23;20232;-48
2022/11/09 02:26:44;;;;;;;6.47;1.10;;;12.50;99.90;;;;;;6159057;23;20161;-49
2022/11/09 02:29:14;;;;;;;4.67;1.43;;;12.50;99.90;;;;;;6159292;23;20174;-49
2022/11/09 02:31:45;;;;;;;4.73;1.40;;;12.50;99.90;;;;;;6157795;23;20174;-50
2022/11/09 02:34:14;;;;;;;3.93;1.10;;;12.40;99.90;;;;;;6157274;23;20154;-50
2022/11/09 02:36:39;;;;;;;3.63;1.20;;;12.40;99.90;;;;;;6158893;23;20484;-48
2022/11/09 02:39:05;;;;;;;3.97;1.13;;;12.40;99.90;;;;;;6158178;23;20173;-50
2022/11/09 02:41:35;;;;;;;6.47;1.70;;;12.30;99.90;;;;;;6158085;23;20229;-49
2022/11/09 02:44:01;;;;;;;7.03;1.40;;;12.30;99.90;;;;;;6157925;23;20145;-50
2022/11/09 02:46:35;;;;;;;4.33;1.17;;;12.20;99.90;;;;;;6159631;23;20154;-50
2022/11/09 02:49:02;;;;;;;7.53;1.80;;;12.20;99.90;;;;;;6132974;23;20635;-49
2022/11/09 02:51:27;;;;;;;6.03;1.07;;;12.20;99.90;;;;;;6160211;23;20225;-49
2022/11/09 02:53:53;;;;;;;3.83;1.13;;;12.20;99.90;;;;;;6159938;23;20182;-50
2022/11/09 02:56:19;;;;;;;3.10;0.87;;;12.20;99.90;;;;;;6160291;23;20528;-49
2022/11/09 02:58:44;;;;;;;5.80;1.60;;;12.30;99.90;;;;;;6162114;23;20224;-49
2022/11/09 03:01:10;;;;;;;6.80;1.43;;;12.30;99.90;;;;;;6159006;23;20153;-50
2022/11/09 03:03:35;;;;;;;4.40;1.50;;;12.40;99.90;;;;;;6157799;23;20157;-49
2022/11/09 03:06:01;;;;;;;5.37;1.30;;;12.40;99.90;;;;;;6158656;23;20154;-49
2022/11/09 03:08:27;;;;;;;4.13;1.20;;;12.50;99.90;;;;;;6158485;23;20173;-49
2022/11/09 03:10:53;;;;;;;7.80;1.17;;;12.60;99.90;;;;;;6158306;23;20150;-50
2022/11/09 03:13:18;;;;;;;4.63;1.30;;;12.70;99.90;;;;;;6158238;23;20177;-50
2022/11/09 03:15:44;;;;;;;5.07;1.70;;;12.70;99.90;;;;;;6158080;23;20616;-50
2022/11/09 03:18:09;;;;;;;9.23;2.03;;;12.70;99.90;;;;;;6158178;23;20184;-50
2022/11/09 03:20:35;;;;;;;3.70;1.20;;;12.80;99.90;;;;;;6158034;23;20173;-50
2022/11/09 03:23:01;;;;;;;5.67;1.40;;;12.70;99.90;;;;;;6157848;23;20145;-49
2022/11/09 03:25:27;;;;;;;8.10;1.30;;;12.70;99.90;;;;;;6157881;23;20154;-49
2022/11/09 03:28:00;;;;;;;5.67;1.30;;;12.80;99.90;;;;;;6158190;23;20181;-49
2022/11/09 03:30:26;;;;;;;8.20;1.77;;;12.70;99.90;;;;;;6157815;23;20592;-48
2022/11/09 03:33:00;;;;;;;6.00;1.50;;;12.70;99.90;;;;;;6157979;23;20180;-50
2022/11/09 03:35:26;;;;;;;5.63;1.20;;;12.60;99.90;;;;;;6158050;23;20195;-50
2022/11/09 03:37:52;;;;;;;5.07;1.10;;;12.60;99.90;;;;;;6157767;23;20173;-49
2022/11/09 03:40:18;;;;;;;4.53;1.67;;;12.60;99.90;;;;;;6158507;23;20584;-50
2022/11/09 03:42:47;;;;;;;4.20;1.07;;;12.50;99.90;;;;;;6157398;23;20171;-50
2022/11/09 03:45:14;;;;;;;7.37;1.47;;;12.50;99.90;;;;;;6157531;23;20154;-48
2022/11/09 03:47:44;;;;;;;5.73;1.30;;;12.50;99.90;;;;;;6157819;23;20218;-50
2022/11/09 03:50:11;;;;;;;4.70;1.67;;;12.50;99.90;;;;;;6157669;23;20193;-50
2022/11/09 03:52:36;;;;;;;5.70;1.43;;;12.50;99.90;;;;;;6158579;23;20172;-48
2022/11/09 03:55:04;;;;;;;8.00;1.60;;;12.60;99.90;;;;;;6158052;23;20166;-48
2022/11/09 03:57:29;;;;;;;3.80;1.00;;;12.60;99.90;;;;;;6157927;23;20181;-50
2022/11/09 03:59:55;;;;;;;8.07;1.27;;;12.60;99.90;;;;;;6159099;23;20150;-50
2022/11/09 04:02:20;;;;;;;8.00;1.40;;;12.70;99.90;;;;;;6159665;23;20158;-50
2022/11/09 04:04:46;;;;;;;5.63;1.40;;;12.70;99.90;;;;;;6159845;23;20168;-48
2022/11/09 04:07:12;;;;;;;7.03;1.60;;;12.70;99.90;;;;;;6159526;23;20154;-48
2022/11/09 04:09:37;;;;;;;8.10;1.50;;;12.70;99.90;;;;;;6159838;23;20160;-50
2022/11/09 04:12:03;;;;;;;5.47;1.23;;;12.70;99.90;;;;;;6159677;23;20175;-50
2022/11/09 04:14:29;;;;;;;9.03;1.23;;;12.70;99.90;;;;;;6160059;23;20466;-48
2022/11/09 04:16:54;;;;;;;3.67;1.13;;;12.70;99.90;;;;;;6159986;23;20181;-50
2022/11/09 04:19:20;;;;;;;7.27;1.23;;;12.80;99.90;;;;;;6159977;23;20178;-50
2022/11/09 04:21:46;;;;;;;7.80;1.30;;;12.80;99.90;;;;;;6133358;23;20162;-48
2022/11/09 04:24:11;;;;;;;5.30;1.50;;;12.80;99.90;;;;;;6159480;23;20157;-50
2022/11/09 04:26:37;;;;;;;7.83;1.73;;;12.80;99.90;;;;;;6159240;23;20616;-49
2022/11/09 04:29:03;;;;;;;9.03;2.30;;;12.80;99.90;;;;;;6159257;23;20181;-50
2022/11/09 04:31:28;;;;;;;5.80;1.40;;;12.80;99.90;;;;;;6159388;23;20165;-50
2022/11/09 04:33:54;;;;;;;2.63;0.97;;;12.90;99.90;;;;;;6159343;23;20193;-50
2022/11/09 04:36:20;;;;;;;5.70;1.20;;;12.90;99.90;;;;;;6159349;23;20165;-43
2022/11/09 04:38:46;;;;;;;3.10;1.00;;;12.90;99.90;;;;;;6157368;23;20180;-43
2022/11/09 04:41:11;;;;;;;6.07;1.90;;;12.90;99.90;;;;;;6157609;23;20154;-43
2022/11/09 04:43:37;;;;;;;7.97;1.53;;;12.90;99.90;;;;;;6157900;23;20624;-42
2022/11/09 04:46:03;;;;;;;11.90;2.10;;;12.90;99.90;;;;;;6157246;23;20180;-42
2022/11/09 04:48:29;;;;;;;6.77;1.60;;;12.90;99.90;;;;;;6157462;23;20177;-42
2022/11/09 04:51:00;;;;;;;6.60;1.30;;;13.00;99.90;;;;;;6157176;23;20593;-43
2022/11/09 04:53:26;;;;;;;6.47;1.53;;;13.00;99.90;;;;;;6157300;23;20317;-44
2022/11/09 04:55:52;;;;;;;3.43;1.60;;;13.00;99.90;;;;;;6157057;23;20166;-45
2022/11/09 04:58:17;;;;;;;4.20;1.33;;;12.90;99.90;;;;;;6157061;23;20544;-43
2022/11/09 05:00:43;;;;;;;6.00;1.53;;;13.00;99.90;;;;;;6157112;23;20161;-43
2022/11/09 05:03:08;;;;;;;7.50;1.57;;;13.00;99.90;;;;;;6157376;23;20164;-43
2022/11/09 05:05:36;;;;;;;9.17;1.30;;;13.00;99.90;;;;;;6157725;23;20208;-42
2022/11/09 05:08:02;;;;;;;6.27;1.67;;;13.10;99.90;;;;;;6156918;23;20619;-43
2022/11/09 05:10:28;;;;;;;5.37;1.33;;;13.10;99.90;;;;;;6157315;23;20522;-44
2022/11/09 05:13:04;;;;;;;9.27;1.60;;;13.10;99.90;;;;;;6156954;23;20174;-42
2022/11/09 05:15:30;;;;;;;6.13;1.40;;;13.00;99.90;;;;;;6157649;23;20632;-44
2022/11/09 05:17:56;;;;;;;4.97;1.40;;;13.00;99.90;;;;;;6156991;23;20170;-44
2022/11/09 05:20:22;;;;;;;8.57;1.77;;;13.00;99.90;;;;;;6156916;23;20600;-43
2022/11/09 05:25:32;;;;;;;6.93;1.40;;;13.00;99.90;;;;;;6157326;23;20149;-44
2022/11/09 05:27:58;;;;;;;6.50;1.30;;;13.10;99.90;;;;;;6157080;23;20532;-50
2022/11/09 05:30:24;;;;;;;3.07;1.10;;;13.00;99.90;;;;;;6157947;23;20158;-45
2022/11/09 05:32:49;;;;;;;6.73;1.30;;;13.00;99.90;;;;;;6156791;23;20177;-42
2022/11/09 05:35:15;;;;;;;5.70;1.83;;;13.00;99.90;;;;;;6156812;23;20593;-43
2022/11/09 05:37:45;;;;;;;4.07;1.50;;;12.90;99.90;;;;;;6156610;23;20221;-44
2022/11/09 05:40:10;;;;;;;5.77;1.30;;;12.80;99.90;;;;;;6156799;23;20153;-45
2022/11/09 05:42:40;;;;;;;4.70;1.50;;;12.80;99.90;;;;;;6156957;23;20184;-42
2022/11/09 05:45:07;;;;;;;2.43;1.00;;;12.80;99.90;;;;;;6156691;23;20181;-44
2022/11/09 05:47:37;;;;;;;5.93;1.40;;;12.80;99.90;;;;;;6156769;23;20177;-43
2022/11/09 05:50:02;;;;;;;4.07;1.40;;;12.80;99.90;;;;;;6156502;23;20161;-42
2022/11/09 05:52:28;;;;;;;3.33;0.93;;;12.70;99.90;;;;;;6156768;23;20196;-45
2022/11/09 05:54:54;;;;;;;6.67;1.33;;;12.70;99.90;;;;;;6130365;23;20244;-44
2022/11/09 05:57:19;;;;;;;8.57;1.50;;;12.70;99.90;;;;;;6156329;23;20177;-45
2022/11/09 05:59:45;;;;;;;4.00;1.00;;;12.70;99.90;;;;;;6130797;23;20215;-44
2022/11/09 06:02:10;;;;;;;4.67;1.10;;;12.70;99.90;;;;;;6156437;23;20157;-44
2022/11/09 06:04:36;;;;;;;3.37;0.70;;;12.70;99.90;;;;;;6156724;23;20161;-45
2022/11/09 06:07:01;;;;;;;3.07;1.07;;;12.60;99.90;;;;;;6156627;23;20153;-45
2022/11/09 06:09:27;;;;;;;2.60;0.93;;;12.60;99.90;;;;;;6156467;23;20158;-43
2022/11/09 06:11:52;;;;;;;2.83;0.97;;;12.50;99.90;;;;;;6156274;23;20206;-43
2022/11/09 06:14:18;;;;;;;11.13;1.93;;;12.60;99.90;;;;;;6156680;23;20610;-45
2022/11/09 06:16:43;;;;;;;4.70;1.63;;;12.50;99.90;;;;;;6156365;23;20177;-45
2022/11/09 06:19:09;;;;;;;4.97;1.10;;;12.50;99.90;;;;;;6156583;23;20173;-45
2022/11/09 06:21:34;;;;;;;5.20;1.30;;;12.50;99.90;;;;;;6130027;23;20236;-45
2022/11/09 06:24:00;;;;;;;3.20;0.97;;;12.50;99.90;;;;;;6156660;23;20490;-43
2022/11/09 06:26:26;;;;;;;4.30;1.20;;;12.50;99.90;;;;;;6156366;23;20539;-43
2022/11/09 06:28:51;;;;;;;8.77;1.00;;;12.50;99.90;;;;;;6156500;23;20212;-43
2022/11/09 06:31:17;;;;;;;6.57;1.00;;;12.60;99.90;;;;;;6156185;23;20181;-43
2022/11/09 06:33:43;;;;;;;1.83;0.70;;;12.50;99.90;;;;;;6156514;23;20153;-42
2022/11/09 06:36:10;;;;;;;3.23;1.03;;;12.50;99.90;;;;;;6156175;23;20522;-44
2022/11/09 06:38:35;;;;;;;2.40;0.80;;;12.50;99.90;;;;;;6156105;23;20188;-44
2022/11/09 06:41:01;;;;;;;1.87;0.80;;;12.40;99.90;;;;;;6130508;23;20186;-43
2022/11/09 06:43:27;;;;;;;3.07;0.90;;;12.50;99.90;;;;;;6156207;23;20622;-44
2022/11/09 06:45:53;;;;;;;1.80;0.60;;;12.40;99.90;;;;;;6156421;23;20170;-43
2022/11/09 06:48:19;;;;;;;2.83;0.97;;;12.30;99.90;;;;;;6156344;23;20252;-45
2022/11/09 06:50:44;;;;;;;2.23;0.80;;;12.20;99.90;;;;;;6156367;23;20177;-42
2022/11/09 06:53:12;;;;;;;3.07;0.60;;;12.10;99.90;;;;;;6155940;23;20194;-45
2022/11/09 06:55:39;;;;;;;4.67;0.87;;;12.10;99.90;;;;;;6155922;23;20184;-45
2022/11/09 06:58:11;;;;;;;2.67;1.00;;;12.00;99.90;;;;;;6130191;23;20227;-43
2022/11/09 07:00:37;;;;;;;4.83;1.83;;;11.90;99.90;;;;;;6156018;23;20161;-46
2022/11/09 07:03:03;;;;;;;3.27;0.80;;;11.80;99.90;;;;;;6156045;23;20532;-45
2022/11/09 07:05:28;;;;;;;1.40;0.87;;;11.70;99.90;;;;;;6155947;23;20165;-44
2022/11/09 07:07:55;;;;;;;2.80;0.90;;;11.60;99.90;;;;;;6156178;23;20178;-44
2022/11/09 07:10:20;;;;;;;2.30;0.90;;;11.60;99.90;;;;;;6156399;23;20168;-46
2022/11/09 07:12:46;;;;;;;7.87;0.90;;;11.50;99.90;;;;;;6155836;23;20185;-45
2022/11/09 07:15:12;;;;;;;2.33;0.83;;;11.50;99.90;;;;;;6155804;23;20181;-45
2022/11/09 07:17:39;;;;;;;1.60;0.70;;;11.40;99.90;;;;;;6155861;23;20173;-45
2022/11/09 07:20:09;;;;;;;4.00;0.80;;;11.40;99.90;;;;;;6156200;23;20157;-42
2022/11/09 07:22:38;;;;;;;2.47;0.90;;;11.40;99.90;;;;;;6156163;23;20161;-43
2022/11/09 07:25:05;;;;;;;3.00;0.87;;;11.40;99.90;;;;;;6156051;23;20153;-43
2022/11/09 07:27:30;;;;;;;4.60;0.90;;;11.40;99.90;;;;;;6156100;23;20490;-45
2022/11/09 07:29:56;;;;;;;3.50;1.30;;;11.40;99.90;;;;;;6156321;23;20164;-45
2022/11/09 07:32:21;;;;;;;3.67;1.10;;;11.40;99.90;;;;;;6156078;23;20657;-44
2022/11/09 07:34:47;;;;;;;5.33;1.27;;;11.50;99.90;;;;;;6157962;23;20470;-45
2022/11/09 07:37:13;;;;;;;7.17;1.50;;;11.50;99.90;;;;;;6158116;23;20471;-44
2022/11/09 07:39:38;;;;;;;4.30;1.27;;;11.50;99.90;;;;;;6158270;23;20494;-45
2022/11/09 07:42:04;;;;;;;7.23;1.40;;;11.50;99.90;;;;;;6157768;23;20189;-45
2022/11/09 07:44:29;;;;;;;4.27;0.93;;;11.50;99.90;;;;;;6157902;23;20250;-45
2022/11/09 07:46:55;;;;;;;2.53;0.90;;;11.50;99.90;;;;;;6158501;23;20168;-45
2022/11/09 07:49:20;;;;;;;2.27;1.03;;;11.60;99.90;;;;;;6157672;23;20177;-44
2022/11/09 07:51:46;;;;;;;4.10;1.10;;;11.60;99.90;;;;;;6131616;23;20211;-42
2022/11/09 07:54:11;;;;;;;2.37;1.30;;;11.70;99.90;;;;;;6158492;23;20177;-45
2022/11/09 07:56:37;;;;;;;5.43;1.20;;;11.70;99.90;;;;;;6158061;23;20181;-44
2022/11/09 07:59:03;;;;;;;5.80;1.20;;;11.70;99.90;;;;;;6157614;23;20512;-45
2022/11/09 08:01:28;;;;;;;7.17;1.17;;;11.80;99.90;;;;;;6158092;23;20599;-43
2022/11/09 08:03:54;;;;;;;3.00;1.20;;;11.80;99.90;;;;;;6157978;23;20150;-46
2022/11/09 08:06:21;;;;;;;5.67;1.40;;;11.90;99.90;;;;;;6157639;23;20667;-42
2022/11/09 08:08:48;;;;;;;4.80;1.33;;;11.90;99.90;;;;;;6157450;23;20181;-43
2022/11/09 08:11:14;;;;;;;4.07;1.10;;;12.00;99.90;;;;;;6157838;23;20158;-43
2022/11/09 08:13:40;;;;;;;5.80;1.30;;;12.00;99.90;;;;;;6131336;23;20189;-42
2022/11/09 08:16:05;;;;;;;6.07;1.20;;;12.00;99.90;;;;;;6157604;23;20158;-47
2022/11/09 08:18:31;;;;;;;4.30;1.30;;;12.10;99.90;;;;;;6157450;23;20504;-49
2022/11/09 08:20:59;;;;;;;6.83;1.30;;;12.20;99.90;;;;;;6157753;23;20471;-50
2022/11/09 08:23:25;;;;;;;3.30;1.20;;;12.30;99.90;;;;;;6157465;23;20607;-48
2022/11/09 08:25:50;;;;;;;7.73;1.40;;;12.40;99.90;;;;;;6157774;23;20165;-49
2022/11/09 08:28:16;;;;;;;3.30;1.27;;;12.50;99.90;;;;;;6157374;23;20252;-49
2022/11/09 08:30:43;;;;;;;3.93;1.20;;;12.60;99.90;;;;;;6157466;23;20592;-49
2022/11/09 08:33:09;;;;;;;4.10;1.43;;;12.60;99.90;;;;;;6157615;23;20204;-50
2022/11/09 08:35:34;;;;;;;5.67;1.93;;;12.70;99.90;;;;;;6155809;23;20185;-50
2022/11/09 08:38:03;;;;;;;3.10;1.27;;;12.80;99.90;;;;;;6157366;23;20177;-49
2022/11/09 08:40:30;;;;;;;2.17;1.10;;;12.90;99.90;;;;;;6157582;23;20600;-50
2022/11/09 08:43:01;;;;;;;2.80;1.00;;;13.00;99.90;;;;;;6157448;23;20164;-49
2022/11/09 08:45:27;;;;;;;6.27;1.30;;;13.10;99.90;;;;;;6157410;23;20149;-48
2022/11/09 08:47:58;;;;;;;2.67;1.30;;;13.20;99.90;;;;;;6157885;23;20181;-49
2022/11/09 08:50:24;;;;;;;3.73;1.10;;;13.30;99.90;;;;;;6157320;23;20673;-49
2022/11/09 08:52:49;;;;;;;5.07;1.30;;;13.40;99.90;;;;;;6157620;23;20624;-49
2022/11/09 08:55:15;;;;;;;4.97;1.00;;;13.40;99.90;;;;;;6157135;23;20169;-49
2022/11/09 08:57:40;;;;;;;4.03;1.37;;;13.50;99.90;;;;;;6157228;23;20177;-49
2022/11/09 09:00:06;;;;;;;4.87;1.37;;;13.60;99.90;;;;;;6157161;23;20537;-49
2022/11/09 09:02:32;;;;;;;2.67;1.10;;;13.60;99.90;;;;;;6157109;23;20244;-50
2022/11/09 09:04:58;;;;;;;5.27;1.40;;;13.70;99.90;;;;;;6157171;23;20209;-48
2022/11/09 09:07:24;;;;;;;2.60;1.00;;;13.70;99.90;;;;;;6156969;23;20224;-49
2022/11/09 09:09:49;;;;;;;4.07;1.33;;;13.80;99.90;;;;;;6157342;23;20157;-50
2022/11/09 09:12:15;;;;;;;5.97;1.63;;;13.80;99.90;;;;;;6157250;23;20193;-50
2022/11/09 09:14:40;;;;;;;5.20;1.50;;;13.80;99.90;;;;;;6157310;23;20232;-48
2022/11/09 09:17:06;;;;;;;5.20;1.17;;;14.00;99.90;;;;;;6157165;23;20180;-48
2022/11/09 09:19:31;;;;;;;4.60;1.70;;;14.10;99.90;;;;;;6157193;23;20188;-49
2022/11/09 09:21:58;;;;;;;4.87;1.13;;;14.10;99.90;;;;;;6157228;23;20157;-51
2022/11/09 09:24:23;;;;;;;2.83;1.07;;;14.20;99.90;;;;;;6157285;23;20170;-49
2022/11/09 09:26:49;;;;;;;5.43;1.13;;;14.20;99.90;;;;;;6157127;23;20212;-49
2022/11/09 09:29:15;;;;;;;4.80;1.23;;;14.20;99.90;;;;;;6130640;23;20184;-51
2022/11/09 09:31:40;;;;;;;4.33;1.07;;;14.30;99.90;;;;;;6156966;23;20185;-49
2022/11/09 09:34:06;;;;;;;5.40;1.50;;;14.30;99.90;;;;;;6156774;23;20156;-49
2022/11/09 09:36:34;;;;;;;6.67;1.67;;;14.30;99.90;;;;;;6157027;23;20153;-51
2022/11/09 09:38:59;;;;;;;6.00;1.23;;;14.30;99.90;;;;;;6156533;23;20621;-51
2022/11/09 09:41:53;;;;;;;2.43;0.97;;;14.30;99.90;;;;;;6157273;23;20216;-48
2022/11/09 09:44:33;;;;;;;2.43;0.87;;;14.20;99.90;;;;;;6157028;23;20627;-50
2022/11/09 09:47:26;;;;;;;7.87;1.57;;;14.10;99.90;;;;;;6156944;23;20155;-50
2022/11/09 09:50:24;;;;;;;4.50;1.10;;;14.20;99.90;;;;;;6156612;23;20585;-49
2022/11/09 09:53:01;;;;;;;3.90;1.00;;;14.20;99.90;;;;;;6091920;23;20226;-50
2022/11/09 09:55:32;;;;;;;5.80;1.23;;;14.30;99.90;;;;;;6156745;23;20234;-49
2022/11/09 09:58:08;;;;;;;3.73;0.80;;;14.30;99.90;;;;;;6156349;23;20559;-50
2022/11/09 10:00:37;;;;;;;4.30;1.03;;;14.30;99.90;;;;;;6157011;23;20204;-50
2022/11/09 10:03:03;;;;;;;8.93;1.33;;;14.30;99.90;;;;;;6156463;23;20161;-45
2022/11/09 10:05:49;;;;;;;5.80;0.90;;;14.30;99.90;;;;;;6156427;23;20187;-44
2022/11/09 10:08:21;;;;;;;7.03;0.97;;;14.30;99.90;;;;;;6157394;23;20186;-45
2022/11/09 10:11:08;;;;;;;7.13;1.20;;;14.20;99.90;;;;;;6156875;23;20166;-45
2022/11/09 10:13:42;;;;;;;5.53;1.67;;;14.10;99.90;;;;;;6156379;23;20172;-44
2022/11/09 10:16:17;;;;;;;4.77;1.10;;;14.10;99.90;;;;;;6156718;23;20158;-44
2022/11/09 10:19:18;;;;;;;8.23;1.43;;;14.10;99.90;;;;;;6156579;23;20479;-46
2022/11/09 10:22:08;;;;;;;4.13;1.13;;;14.00;99.90;;;;;;6156452;23;20142;-44
2022/11/09 10:25:02;;;;;;;4.53;0.90;;;14.00;99.90;;;;;;6156348;23;20153;-44
2022/11/09 10:27:54;;;;;;;2.43;0.93;;;14.00;99.90;;;;;;6156293;23;20178;-44
2022/11/09 10:30:22;;;;;;;6.13;1.40;;;13.90;99.90;;;;;;6130127;23;20157;-45
2022/11/09 10:32:50;;;;;;;6.13;1.00;;;13.90;99.90;;;;;;6156213;23;20212;-46
2022/11/09 10:35:20;;;;;;;4.03;1.10;;;14.00;99.90;;;;;;6156179;23;20149;-44
2022/11/09 10:37:48;;;;;;;2.87;1.03;;;14.00;99.90;;;;;;6156221;23;20177;-46
2022/11/09 10:40:22;;;;;;;9.77;1.43;;;14.10;99.90;;;;;;6156465;23;20156;-46
2022/11/09 10:42:54;;;;;;;6.87;1.00;;;14.10;99.90;;;;;;6156251;23;20149;-45
2022/11/09 10:45:32;;;;;;;6.87;1.00;;;14.20;99.90;;;;;;6156246;23;20216;-42
2022/11/09 10:47:59;;;;;;;3.30;1.10;;;14.30;99.90;;;;;;6156230;23;20177;-45
2022/11/09 10:50:45;;;;;;;4.57;1.30;;;14.40;99.90;;;;;;6133197;23;20196;-51
2022/11/09 10:53:18;;;;;;;5.00;1.10;;;14.40;99.90;;;;;;6161250;23;20182;-51
2022/11/09 10:56:02;;;;;;;3.97;1.00;;;14.50;99.90;;;;;;6160219;23;20571;-51
2022/11/09 10:58:37;;;;;;;4.17;0.80;;;14.50;99.90;;;;;;6160225;23;20173;-49
2022/11/09 11:01:13;;;;;;;7.07;1.50;;;14.60;99.90;;;;;;6159880;23;20149;-50
2022/11/09 11:03:39;;;;;;;8.57;1.50;;;14.70;99.90;;;;;;6159844;23;20165;-49
2022/11/09 11:06:16;;;;;;;3.13;1.27;;;14.70;99.90;;;;;;6160203;23;20160;-49
2022/11/09 11:09:03;;;;;;;10.10;1.43;;;14.80;99.90;;;;;;6160209;23;20173;-50
2022/11/09 11:11:30;;;;;;;5.13;1.20;;;14.90;99.90;;;;;;6158408;23;20216;-50
2022/11/09 11:14:16;;;;;;;7.00;1.40;;;14.90;99.90;;;;;;6161071;23;20157;-50
2022/11/09 11:16:43;;;;;;;7.43;1.10;;;14.90;99.90;;;;;;6161174;23;20157;-49
2022/11/09 11:19:30;;;;;;;4.53;0.90;;;15.00;99.90;;;;;;6161388;23;20173;-50
2022/11/09 11:22:18;;;;;;;4.07;1.13;;;15.00;99.90;;;;;;6161814;23;20232;-49
2022/11/09 11:24:59;;;;;;;6.43;1.47;;;15.00;99.90;;;;;;6162742;23;20145;-48
2022/11/09 11:27:49;;;;;;;5.50;1.00;;;15.00;99.90;;;;;;6161676;23;20181;-51
2022/11/09 11:30:18;;;;;;;7.30;1.10;;;15.00;99.90;;;;;;6162716;23;20619;-50
2022/11/09 11:32:44;;;;;;;4.33;0.80;;;15.00;99.90;;;;;;6162538;23;20189;-50
2022/11/09 11:35:34;;;;;;;7.40;1.50;;;15.00;99.90;;;;;;6162405;23;20146;-50
2022/11/09 11:38:10;;;;;;;4.43;1.03;;;15.10;99.90;;;;;;6161806;23;20499;-50
2022/11/09 11:40:57;;;;;;;10.27;1.50;;;15.20;99.90;;;;;;6162368;23;20138;-51
2022/11/09 11:43:37;;;;;;;5.83;1.27;;;15.20;99.90;;;;;;6161757;23;20161;-49
2022/11/09 11:46:28;;;;;;;7.33;1.20;;;15.30;99.90;;;;;;6162110;23;20150;-49
2022/11/09 11:49:21;;;;;;;7.63;1.60;;;15.30;99.90;;;;;;6135564;23;20209;-49
2022/11/09 11:52:06;;;;;;;3.63;1.00;;;15.40;99.90;;;;;;6160603;23;20296;-50
2022/11/09 11:54:56;;;;;;;7.23;1.47;;;15.40;99.90;;;;;;6159328;23;20173;-48
2022/11/09 11:57:46;;;;;;;7.30;1.60;;;15.50;99.90;;;;;;6160485;23;20220;-50
2022/11/09 12:00:17;;;;;;;7.27;1.17;;;15.50;99.90;;;;;;6161037;23;20150;-49
2022/11/09 12:03:06;;;;;;;6.27;1.07;;;15.60;99.90;;;;;;6157419;23;20162;-51
2022/11/09 12:06:04;;;;;;;9.93;1.57;;;15.60;99.90;;;;;;6129661;23;20236;-50
2022/11/09 12:08:57;;;;;;;5.53;1.20;;;15.60;99.90;;;;;;6155893;23;20177;-50
2022/11/09 12:11:41;;;;;;;7.13;1.03;;;15.60;99.90;;;;;;6155146;23;20178;-50
2022/11/09 12:14:35;;;;;;;6.83;1.27;;;15.60;99.90;;;;;;6156264;23;20193;-51
2022/11/09 12:17:12;;;;;;;4.00;1.10;;;15.60;99.90;;;;;;6155637;23;20146;-49
2022/11/09 12:19:51;;;;;;;8.93;1.10;;;15.60;99.90;;;;;;6156317;23;20585;-52
2022/11/09 12:22:56;;;;;;;8.27;1.23;;;15.60;99.90;;;;;;6158009;23;20145;-51
2022/11/09 12:25:31;;;;;;;5.03;1.17;;;15.50;99.90;;;;;;6157755;23;20157;-51
2022/11/09 12:28:26;;;;;;;8.03;1.80;;;15.50;99.90;;;;;;6155904;23;20272;-49
2022/11/09 12:31:08;;;;;;;5.23;1.43;;;15.50;99.90;;;;;;6157942;23;20482;-49
2022/11/09 12:33:53;;;;;;;8.73;1.90;;;15.40;99.90;;;;;;6131665;23;20177;-51
2022/11/09 12:36:40;;;;;;;7.07;1.67;;;15.40;99.90;;;;;;6157508;23;20145;-49
2022/11/09 12:39:18;;;;;;;7.00;1.17;;;15.30;99.90;;;;;;6157308;23;20177;-50
2022/11/09 12:41:47;;;;;;;10.07;1.70;;;15.30;99.90;;;;;;6157641;23;20216;-49
2022/11/09 12:44:15;;;;;;;9.70;1.70;;;15.20;99.90;;;;;;6157657;23;20153;-49
2022/11/09 12:46:48;;;;;;;5.60;1.10;;;15.20;99.90;;;;;;6157232;23;20154;-49
2022/11/09 12:49:40;;;;;;;7.50;1.70;;;15.30;99.90;;;;;;6157644;23;20185;-49
2022/11/09 12:52:12;;;;;;;4.27;1.37;;;15.40;99.90;;;;;;6157494;23;20597;-51
2022/11/09 12:54:42;;;;;;;6.93;1.40;;;15.40;99.90;;;;;;6157238;23;20183;-51
2022/11/09 12:57:12;;;;;;;3.47;1.37;;;15.40;99.90;;;;;;6157391;23;20146;-51
2022/11/09 12:59:50;;;;;;;3.57;1.30;;;15.40;99.90;;;;;;6157884;23;20229;-49
2022/11/09 13:02:30;;;;;;;5.60;1.40;;;15.30;99.90;;;;;;6157095;23;20161;-49